createdAt,value
2016-09-22T00:00:28.595Z,63.6
2016-09-22T00:01:28.571Z,63.51
2016-09-22T00:02:28.548Z,63.8
2016-09-22T00:03:28.518Z,64.09
2016-09-22T00:04:28.493Z,63.51
2016-09-22T00:05:28.467Z,64.18
2016-09-22T00:06:28.444Z,63.32
2016-09-22T00:07:28.418Z,63.32
2016-09-22T00:08:28.391Z,63.51
2016-09-22T00:09:28.367Z,63.51
2016-09-22T00:10:28.342Z,63.51
2016-09-22T00:11:28.318Z,63.23
2016-09-22T00:12:28.290Z,63.32
2016-09-22T00:13:28.268Z,63.7
2016-09-22T00:14:28.242Z,63.32
2016-09-22T00:15:28.216Z,63.51
2016-09-22T00:16:28.193Z,63.6
2016-09-22T00:17:28.168Z,63.99
2016-09-22T00:18:28.142Z,64.09
2016-09-22T00:19:28.118Z,64.18
2016-09-22T00:20:28.092Z,64.18
2016-09-22T00:21:28.065Z,63.89
2016-09-22T00:22:28.040Z,63.89
2016-09-22T00:23:28.018Z,63.89
2016-09-22T00:24:27.993Z,63.89
2016-09-22T00:25:27.969Z,63.89
2016-09-22T00:26:27.943Z,63.89
2016-09-22T00:27:27.915Z,63.7
2016-09-22T00:28:27.891Z,64.09
2016-09-22T00:29:27.865Z,63.99
2016-09-22T00:30:27.841Z,63.99
2016-09-22T00:31:27.815Z,63.8
2016-09-22T00:32:27.793Z,64.18
2016-09-22T00:33:27.766Z,64.18
2016-09-22T00:34:27.740Z,64.18
2016-09-22T00:35:27.712Z,64.09
2016-09-22T00:36:27.688Z,64.18
2016-09-22T00:37:27.664Z,63.89
2016-09-22T00:38:27.636Z,63.99
2016-09-22T00:39:27.614Z,63.89
2016-09-22T00:40:27.588Z,64.09
2016-09-22T00:41:27.564Z,63.6
2016-09-22T00:42:27.538Z,63.8
2016-09-22T00:43:27.512Z,63.76
2016-09-22T00:44:27.485Z,63.99
2016-09-22T00:45:27.460Z,63.99
2016-09-22T00:46:27.436Z,64.28
2016-09-22T00:47:27.409Z,64.28
2016-09-22T00:48:27.387Z,64.37
2016-09-22T00:49:27.361Z,64.25
2016-09-22T00:50:27.334Z,64.37
2016-09-22T00:51:27.308Z,64.09
2016-09-22T00:52:27.282Z,64.18
2016-09-22T00:53:27.260Z,64.28
2016-09-22T00:54:27.233Z,63.99
2016-09-22T00:55:27.209Z,64.65
2016-09-22T00:56:27.183Z,64.47
2016-09-22T00:57:27.159Z,64.75
2016-09-22T00:58:27.134Z,64.43
2016-09-22T00:59:27.108Z,64.65
2016-09-22T01:00:27.083Z,64.53
2016-09-22T01:01:27.055Z,64.53
2016-09-22T01:02:27.030Z,64.65
2016-09-22T01:03:27.004Z,64.53
2016-09-22T01:04:26.982Z,64.53
2016-09-22T01:05:26.956Z,64.72
2016-09-22T01:06:27.227Z,64.72
2016-09-22T01:07:26.907Z,64.81
2016-09-22T01:08:26.880Z,65.1
2016-09-22T01:09:26.863Z,65.01
2016-09-22T01:10:26.826Z,65.01
2016-09-22T01:11:26.803Z,65.2
2016-09-22T01:12:26.778Z,65.2
2016-09-22T01:13:26.752Z,65.3
2016-09-22T01:14:26.727Z,65.3
2016-09-22T01:15:26.701Z,65.3
2016-09-22T01:16:26.675Z,64.72
2016-09-22T01:17:26.659Z,64.91
2016-09-22T01:18:26.625Z,64.91
2016-09-22T01:19:26.597Z,64.81
2016-09-22T01:20:26.575Z,64.91
2016-09-22T01:21:26.549Z,64.91
2016-09-22T01:22:26.523Z,65.1
2016-09-22T01:23:26.502Z,65.2
2016-09-22T01:24:26.474Z,65.2
2016-09-22T01:25:26.444Z,65.2
2016-09-22T01:26:26.420Z,65.01
2016-09-22T01:27:26.402Z,65.1
2016-09-22T01:28:26.371Z,65.48
2016-09-22T01:29:26.346Z,65.67
2016-09-22T01:30:26.324Z,65.39
2016-09-22T01:31:26.295Z,65.39
2016-09-22T01:32:26.269Z,65.48
2016-09-22T01:33:26.242Z,65.48
2016-09-22T01:34:26.223Z,65.48
2016-09-22T01:35:26.744Z,65.67
2016-09-22T01:36:26.171Z,65.77
2016-09-22T01:37:26.149Z,65.67
2016-09-22T01:38:26.118Z,65.58
2016-09-22T01:39:26.091Z,65.67
2016-09-22T01:40:26.067Z,65.48
2016-09-22T01:41:26.041Z,65.48
2016-09-22T01:42:26.014Z,65.58
2016-09-22T01:43:25.990Z,65.58
2016-09-22T01:44:25.967Z,65.58
2016-09-22T01:45:25.940Z,65.87
2016-09-22T01:46:25.912Z,65.96
2016-09-22T01:47:25.887Z,65.96
2016-09-22T01:48:25.861Z,65.77
2016-09-22T01:49:25.837Z,65.77
2016-09-22T01:50:25.809Z,65.96
2016-09-22T01:51:25.787Z,66.06
2016-09-22T01:52:25.763Z,66.06
2016-09-22T01:53:25.734Z,65.87
2016-09-22T01:54:25.710Z,66.35
2016-09-22T01:55:25.683Z,65.87
2016-09-22T01:56:25.658Z,66.25
2016-09-22T01:57:25.633Z,66.44
2016-09-22T01:58:25.607Z,66.15
2016-09-22T01:59:25.589Z,66.53
2016-09-22T02:00:25.555Z,66.53
2016-09-22T02:01:25.530Z,66.35
2016-09-22T02:02:25.820Z,66.25
2016-09-22T02:03:25.484Z,67.11
2016-09-22T02:04:25.462Z,66.82
2016-09-22T02:05:25.428Z,66.92
2016-09-22T02:06:25.412Z,66.82
2016-09-22T02:07:25.380Z,66.72
2016-09-22T02:08:25.353Z,66.72
2016-09-22T02:09:25.325Z,66.82
2016-09-22T02:10:25.303Z,66.72
2016-09-22T02:11:25.276Z,66.98
2016-09-22T02:12:25.247Z,66.53
2016-09-22T02:13:25.231Z,66.82
2016-09-22T02:14:25.204Z,67.01
2016-09-22T02:15:25.173Z,66.82
2016-09-22T02:16:25.146Z,66.72
2016-09-22T02:17:25.121Z,67.01
2016-09-22T02:18:25.094Z,66.92
2016-09-22T02:19:25.082Z,67.58
2016-09-22T02:20:25.043Z,67.49
2016-09-22T02:21:25.016Z,67.27
2016-09-22T02:22:24.991Z,67.3
2016-09-22T02:23:24.975Z,67.4
2016-09-22T02:24:24.944Z,66.98
2016-09-22T02:25:24.916Z,67.17
2016-09-22T02:26:24.889Z,67.4
2016-09-22T02:27:24.864Z,67.55
2016-09-22T02:28:24.839Z,67.49
2016-09-22T02:29:24.813Z,67.58
2016-09-22T02:30:24.786Z,67.21
2016-09-22T02:31:24.763Z,67.3
2016-09-22T02:32:24.736Z,67.3
2016-09-22T02:33:24.710Z,67.58
2016-09-22T02:34:24.683Z,67.3
2016-09-22T02:35:24.659Z,67.3
2016-09-22T02:36:24.637Z,67.3
2016-09-22T02:37:24.607Z,67.3
2016-09-22T02:38:24.582Z,67.36
2016-09-22T02:39:24.559Z,67.46
2016-09-22T02:40:24.531Z,67.27
2016-09-22T02:41:24.505Z,67.17
2016-09-22T02:42:24.481Z,67.46
2016-09-22T02:43:24.454Z,67.3
2016-09-22T02:44:24.440Z,67.46
2016-09-22T02:45:24.404Z,67.17
2016-09-22T02:46:24.376Z,67.4
2016-09-22T02:47:24.359Z,67.27
2016-09-22T02:48:24.332Z,67.3
2016-09-22T02:49:24.301Z,67.27
2016-09-22T02:50:24.272Z,67.36
2016-09-22T02:51:24.247Z,67.07
2016-09-22T02:52:24.221Z,67.74
2016-09-22T02:53:24.196Z,67.65
2016-09-22T02:54:24.170Z,67.65
2016-09-22T02:55:24.145Z,67.83
2016-09-22T02:56:24.119Z,67.93
2016-09-22T02:57:24.096Z,68.12
2016-09-22T02:58:24.077Z,68.03
2016-09-22T02:59:24.040Z,67.83
2016-09-22T03:00:24.016Z,67.83
2016-09-22T03:01:23.991Z,68.03
2016-09-22T03:02:23.972Z,68.32
2016-09-22T03:03:23.941Z,68.12
2016-09-22T03:04:23.914Z,68.32
2016-09-22T03:05:23.889Z,68.03
2016-09-22T03:06:23.862Z,68.03
2016-09-22T03:07:23.834Z,68.22
2016-09-22T03:08:23.811Z,68.12
2016-09-22T03:09:23.792Z,68.12
2016-09-22T03:10:23.759Z,68.12
2016-09-22T03:11:23.733Z,68.41
2016-09-22T03:12:23.706Z,68.22
2016-09-22T03:13:23.683Z,68.03
2016-09-22T03:14:23.657Z,68.22
2016-09-22T03:15:23.631Z,68.22
2016-09-22T03:16:23.605Z,68.03
2016-09-22T03:17:23.577Z,68.32
2016-09-22T03:18:23.555Z,68.03
2016-09-22T03:19:23.526Z,68.32
2016-09-22T03:20:23.501Z,68.41
2016-09-22T03:21:23.482Z,68.12
2016-09-22T03:22:23.455Z,68.12
2016-09-22T03:23:23.424Z,68.22
2016-09-22T03:24:23.397Z,68.22
2016-09-22T03:25:23.370Z,68.12
2016-09-22T03:26:23.351Z,68.22
2016-09-22T03:27:23.321Z,68.12
2016-09-22T03:28:23.294Z,68.7
2016-09-22T03:29:23.270Z,68.7
2016-09-22T03:30:23.240Z,68.6
2016-09-22T03:31:23.215Z,68.22
2016-09-22T03:32:23.207Z,68.22
2016-09-22T03:33:23.164Z,68.6
2016-09-22T03:34:23.140Z,67.93
2016-09-22T03:35:23.114Z,68.79
2016-09-22T03:36:23.087Z,68.12
2016-09-22T03:37:23.062Z,68.03
2016-09-22T03:38:23.035Z,68.41
2016-09-22T03:39:23.013Z,68.32
2016-09-22T03:40:22.987Z,68.22
2016-09-22T03:41:22.959Z,68.12
2016-09-22T03:42:22.933Z,68.03
2016-09-22T03:43:22.906Z,68.41
2016-09-22T03:44:22.880Z,68.12
2016-09-22T03:45:22.853Z,67.93
2016-09-22T03:46:22.845Z,67.83
2016-09-22T03:47:22.805Z,68.12
2016-09-22T03:48:22.781Z,67.93
2016-09-22T03:49:22.752Z,68.12
2016-09-22T03:50:22.726Z,67.83
2016-09-22T03:51:22.699Z,68.03
2016-09-22T03:52:22.674Z,68.32
2016-09-22T03:53:22.648Z,68.32
2016-09-22T03:54:22.623Z,68.03
2016-09-22T03:55:22.595Z,68.22
2016-09-22T03:56:22.572Z,68.03
2016-09-22T03:57:22.544Z,68.03
2016-09-22T03:58:22.534Z,68.03
2016-09-22T03:59:22.493Z,68.03
2016-09-22T04:00:22.466Z,68.03
2016-09-22T04:01:22.438Z,68.12
2016-09-22T04:02:22.410Z,68.03
2016-09-22T04:03:22.387Z,68.03
2016-09-22T04:04:22.360Z,68.03
2016-09-22T04:05:22.333Z,68.41
2016-09-22T04:06:22.309Z,68.03
2016-09-22T04:07:22.282Z,68.41
2016-09-22T04:08:22.258Z,68.51
2016-09-22T04:09:22.231Z,68.22
2016-09-22T04:10:22.208Z,68.22
2016-09-22T04:11:22.180Z,68.03
2016-09-22T04:12:22.153Z,68.03
2016-09-22T04:13:22.129Z,68.22
2016-09-22T04:14:22.103Z,68.22
2016-09-22T04:15:22.078Z,68.03
2016-09-22T04:16:22.050Z,67.93
2016-09-22T04:17:22.036Z,68.7
2016-09-22T04:18:21.998Z,68.03
2016-09-22T04:19:21.969Z,68.22
2016-09-22T04:20:21.945Z,68.22
2016-09-22T04:21:21.920Z,67.93
2016-09-22T04:22:21.896Z,68.32
2016-09-22T04:23:21.868Z,68.12
2016-09-22T04:24:21.843Z,68.22
2016-09-22T04:25:21.816Z,68.32
2016-09-22T04:26:21.791Z,68.22
2016-09-22T04:27:21.761Z,68.12
2016-09-22T04:28:21.736Z,68.22
2016-09-22T04:29:21.713Z,68.22
2016-09-22T04:30:21.685Z,68.79
2016-09-22T04:31:21.658Z,68.79
2016-09-22T04:32:21.655Z,68.41
2016-09-22T04:33:21.613Z,68.32
2016-09-22T04:34:21.580Z,68.51
2016-09-22T04:35:21.556Z,68.41
2016-09-22T04:36:21.529Z,68.7
2016-09-22T04:37:21.518Z,68.98
2016-09-22T04:38:21.478Z,68.7
2016-09-22T04:39:21.450Z,69.08
2016-09-22T04:40:21.425Z,68.79
2016-09-22T04:41:21.396Z,68.98
2016-09-22T04:42:21.372Z,68.88
2016-09-22T04:43:21.348Z,69.17
2016-09-22T04:44:21.320Z,69.17
2016-09-22T04:45:21.295Z,68.88
2016-09-22T04:46:21.269Z,69.08
2016-09-22T04:47:21.245Z,68.98
2016-09-22T04:48:21.217Z,68.98
2016-09-22T04:49:21.190Z,69.65
2016-09-22T04:50:21.162Z,69.56
2016-09-22T04:51:21.139Z,69.56
2016-09-22T04:52:21.127Z,69.37
2016-09-22T04:53:21.086Z,69.37
2016-09-22T04:54:21.059Z,69.17
2016-09-22T04:55:21.033Z,69.37
2016-09-22T04:56:21.008Z,69.27
2016-09-22T04:57:20.980Z,69.56
2016-09-22T04:58:20.955Z,69.93
2016-09-22T04:59:20.930Z,69.84
2016-09-22T05:00:20.904Z,69.65
2016-09-22T05:01:20.879Z,69.84
2016-09-22T05:02:20.852Z,69.93
2016-09-22T05:03:20.825Z,69.37
2016-09-22T05:04:20.799Z,69.37
2016-09-22T05:05:20.775Z,69.37
2016-09-22T05:06:20.750Z,69.46
2016-09-22T05:07:20.720Z,68.98
2016-09-22T05:08:20.696Z,68.98
2016-09-22T05:09:20.669Z,68.98
2016-09-22T05:10:20.648Z,68.98
2016-09-22T05:11:20.623Z,68.98
2016-09-22T05:12:20.596Z,68.98
2016-09-22T05:13:20.564Z,69.08
2016-09-22T05:14:20.539Z,68.88
2016-09-22T05:15:20.514Z,68.98
2016-09-22T05:16:20.485Z,68.98
2016-09-22T05:17:20.464Z,68.98
2016-09-22T05:18:20.436Z,68.79
2016-09-22T05:19:20.580Z,68.98
2016-09-22T05:20:20.383Z,68.79
2016-09-22T05:21:20.371Z,68.88
2016-09-22T05:22:20.334Z,68.98
2016-09-22T05:23:20.306Z,68.79
2016-09-22T05:24:20.281Z,68.98
2016-09-22T05:25:20.254Z,68.98
2016-09-22T05:26:20.229Z,68.98
2016-09-22T05:27:20.205Z,68.98
2016-09-22T05:28:20.177Z,68.88
2016-09-22T05:29:20.152Z,68.79
2016-09-22T05:30:20.125Z,68.98
2016-09-22T05:31:20.100Z,68.98
2016-09-22T05:32:20.074Z,68.98
2016-09-22T05:33:20.048Z,68.98
2016-09-22T05:34:20.022Z,68.79
2016-09-22T05:35:19.996Z,68.88
2016-09-22T05:36:19.972Z,68.7
2016-09-22T05:37:19.943Z,68.98
2016-09-22T05:38:19.922Z,68.79
2016-09-22T05:39:19.893Z,68.79
2016-09-22T05:40:19.864Z,68.79
2016-09-22T05:41:19.843Z,68.51
2016-09-22T05:42:19.815Z,68.51
2016-09-22T05:43:19.801Z,68.7
2016-09-22T05:44:19.764Z,68.6
2016-09-22T05:45:19.735Z,68.32
2016-09-22T05:46:19.715Z,68.51
2016-09-22T05:47:19.685Z,68.6
2016-09-22T05:48:19.661Z,68.79
2016-09-22T05:49:19.636Z,68.6
2016-09-22T05:50:19.612Z,68.6
2016-09-22T05:51:19.585Z,68.12
2016-09-22T05:52:19.558Z,68.22
2016-09-22T05:53:19.534Z,68.41
2016-09-22T05:54:19.508Z,68.12
2016-09-22T05:55:19.481Z,68.22
2016-09-22T05:56:19.456Z,68.03
2016-09-22T05:57:19.429Z,68.12
2016-09-22T05:58:19.403Z,68.12
2016-09-22T05:59:19.379Z,67.74
2016-09-22T06:00:19.359Z,67.3
2016-09-22T06:01:19.329Z,67.4
2016-09-22T06:02:19.303Z,67.58
2016-09-22T06:03:19.277Z,67.3
2016-09-22T06:04:19.252Z,67.49
2016-09-22T06:05:19.224Z,66.82
2016-09-22T06:06:19.201Z,66.72
2016-09-22T06:07:19.174Z,67.01
2016-09-22T06:08:19.157Z,66.53
2016-09-22T06:09:19.129Z,66.72
2016-09-22T06:10:19.102Z,66.92
2016-09-22T06:11:19.075Z,66.82
2016-09-22T06:12:19.047Z,66.44
2016-09-22T06:13:19.024Z,66.53
2016-09-22T06:14:18.997Z,66.35
2016-09-22T06:15:18.976Z,66.06
2016-09-22T06:16:18.947Z,65.58
2016-09-22T06:17:18.923Z,65.77
2016-09-22T06:18:18.898Z,65.77
2016-09-22T06:19:18.871Z,65.9
2016-09-22T06:20:18.850Z,65.58
2016-09-22T06:21:18.822Z,65.52
2016-09-22T06:22:18.801Z,65.61
2016-09-22T06:23:18.776Z,65.14
2016-09-22T06:24:18.747Z,65.33
2016-09-22T06:25:18.723Z,65.33
2016-09-22T06:26:18.696Z,65.14
2016-09-22T06:27:18.672Z,65.14
2016-09-22T06:28:18.946Z,64.94
2016-09-22T06:29:18.624Z,64.85
2016-09-22T06:30:18.604Z,64.56
2016-09-22T06:31:18.573Z,64.85
2016-09-22T06:32:18.547Z,64.75
2016-09-22T06:33:18.521Z,64.56
2016-09-22T06:34:18.507Z,64.85
2016-09-22T06:35:18.474Z,64.47
2016-09-22T06:36:18.448Z,64.47
2016-09-22T06:37:18.423Z,64.18
2016-09-22T06:38:18.396Z,64.37
2016-09-22T06:39:18.372Z,64.28
2016-09-22T06:40:18.352Z,63.8
2016-09-22T06:41:18.326Z,63.89
2016-09-22T06:42:18.298Z,64.37
2016-09-22T06:43:18.275Z,63.89
2016-09-22T06:44:18.252Z,64.12
2016-09-22T06:45:18.226Z,63.83
2016-09-22T06:46:18.201Z,63.64
2016-09-22T06:47:18.177Z,63.54
2016-09-22T06:48:18.155Z,63.64
2016-09-22T06:49:18.128Z,63.64
2016-09-22T06:50:18.103Z,63.93
2016-09-22T06:51:18.085Z,63.35
2016-09-22T06:52:18.057Z,63.35
2016-09-22T06:53:18.032Z,63.26
2016-09-22T06:54:18.010Z,63.26
2016-09-22T06:55:17.983Z,63.26
2016-09-22T06:56:17.957Z,62.87
2016-09-22T06:57:18.525Z,62.68
2016-09-22T06:58:17.908Z,62.97
2016-09-22T06:59:17.887Z,62.59
2016-09-22T07:00:17.861Z,62.4
2016-09-22T07:01:17.838Z,62.14
2016-09-22T07:02:17.811Z,62.43
2016-09-22T07:03:17.791Z,62.04
2016-09-22T07:04:17.765Z,62.24
2016-09-22T07:05:17.739Z,61.95
2016-09-22T07:06:17.717Z,61.66
2016-09-22T07:07:17.690Z,61.76
2016-09-22T07:08:17.671Z,61.28
2016-09-22T07:09:17.650Z,60.9
2016-09-22T07:10:17.620Z,60.99
2016-09-22T07:11:17.596Z,60.71
2016-09-22T07:12:17.573Z,60.61
2016-09-22T07:13:17.553Z,60.42
2016-09-22T07:14:17.527Z,60.8
2016-09-22T07:15:17.504Z,60.35
2016-09-22T07:16:17.478Z,60.45
2016-09-22T07:17:17.456Z,60.26
2016-09-22T07:18:17.434Z,60.26
2016-09-22T07:19:17.410Z,59.97
2016-09-22T07:20:17.392Z,59.88
2016-09-22T07:21:17.365Z,59.88
2016-09-22T07:22:17.337Z,59.49
2016-09-22T07:23:17.317Z,59.59
2016-09-22T07:24:17.292Z,59.49
2016-09-22T07:25:17.271Z,59.01
2016-09-22T07:26:17.246Z,59.14
2016-09-22T07:27:17.222Z,58.76
2016-09-22T07:28:17.200Z,58.37
2016-09-22T07:29:17.178Z,58.86
2016-09-22T07:30:17.154Z,58.76
2016-09-22T07:31:17.129Z,58.37
2016-09-22T07:32:17.108Z,58.18
2016-09-22T07:33:17.087Z,57.9
2016-09-22T07:34:17.074Z,58.18
2016-09-22T07:35:17.039Z,57.7
2016-09-22T07:36:17.018Z,57.9
2016-09-22T07:37:16.995Z,57.35
2016-09-22T07:38:16.972Z,57.32
2016-09-22T07:39:16.950Z,57.54
2016-09-22T07:40:16.926Z,57.45
2016-09-22T07:41:16.902Z,56.87
2016-09-22T07:42:16.881Z,57.16
2016-09-22T07:43:16.859Z,56.97
2016-09-22T07:44:16.836Z,56.77
2016-09-22T07:45:16.814Z,56.39
2016-09-22T07:46:16.791Z,56.3
2016-09-22T07:47:16.770Z,56.2
2016-09-22T07:48:16.746Z,56.13
2016-09-22T07:49:16.724Z,56.13
2016-09-22T07:50:16.701Z,55.94
2016-09-22T07:51:16.693Z,55.36
2016-09-22T07:52:16.656Z,55.36
2016-09-22T07:53:16.637Z,55.65
2016-09-22T07:54:16.615Z,55.46
2016-09-22T07:55:16.590Z,55.65
2016-09-22T07:56:16.663Z,55.36
2016-09-22T07:57:16.549Z,54.89
2016-09-22T07:58:16.525Z,55.01
2016-09-22T07:59:16.500Z,54.72
2016-09-22T08:00:16.483Z,54.44
2016-09-22T08:01:16.459Z,54.63
2016-09-22T08:02:16.438Z,54.05
2016-09-22T08:03:16.413Z,54.15
2016-09-22T08:04:16.395Z,54.15
2016-09-22T08:05:16.370Z,53.86
2016-09-22T08:06:16.350Z,53.58
2016-09-22T08:07:16.337Z,52.81
2016-09-22T08:08:16.307Z,53.28
2016-09-22T08:09:16.284Z,52.93
2016-09-22T08:10:16.264Z,52.93
2016-09-22T08:11:16.244Z,52.26
2016-09-22T08:12:16.221Z,52.36
2016-09-22T08:13:16.199Z,52.36
2016-09-22T08:14:16.178Z,51.87
2016-09-22T08:15:16.163Z,51.59
2016-09-22T08:16:16.133Z,51.4
2016-09-22T08:17:16.113Z,51.4
2016-09-22T08:18:16.111Z,50.92
2016-09-22T08:19:16.070Z,51.04
2016-09-22T08:20:16.050Z,50.94
2016-09-22T08:21:16.030Z,50.56
2016-09-22T08:22:16.011Z,50.46
2016-09-22T08:23:15.989Z,50.46
2016-09-22T08:24:15.966Z,50.37
2016-09-22T08:25:15.943Z,50.17
2016-09-22T08:26:15.927Z,49.98
2016-09-22T08:27:15.905Z,49.79
2016-09-22T08:28:15.881Z,49.33
2016-09-22T08:29:15.862Z,49.24
2016-09-22T08:30:15.843Z,48.95
2016-09-22T08:31:15.821Z,49.33
2016-09-22T08:32:15.798Z,49.15
2016-09-22T08:33:15.782Z,49.05
2016-09-22T08:34:15.843Z,48.95
2016-09-22T08:35:15.751Z,48.47
2016-09-22T08:36:15.718Z,48.11
2016-09-22T08:37:15.695Z,47.72
2016-09-22T08:38:15.678Z,47.92
2016-09-22T08:39:15.663Z,47.44
2016-09-22T08:40:15.637Z,47.53
2016-09-22T08:41:15.617Z,47.34
2016-09-22T08:42:15.593Z,47.34
2016-09-22T08:43:15.576Z,46.58
2016-09-22T08:44:15.554Z,46.77
2016-09-22T08:45:15.535Z,46.28
2016-09-22T08:46:15.516Z,46.48
2016-09-22T08:47:15.495Z,46.31
2016-09-22T08:48:15.475Z,46.31
2016-09-22T08:49:15.454Z,45.92
2016-09-22T08:50:15.437Z,45.73
2016-09-22T08:51:15.417Z,46.21
2016-09-22T08:52:15.413Z,45.92
2016-09-22T08:53:15.375Z,45.73
2016-09-22T08:54:15.358Z,45.56
2016-09-22T08:55:15.343Z,45.73
2016-09-22T08:56:15.318Z,45.25
2016-09-22T08:57:15.299Z,45.25
2016-09-22T08:58:15.281Z,45.28
2016-09-22T08:59:15.259Z,44.89
2016-09-22T09:00:15.241Z,45.08
2016-09-22T09:01:15.380Z,45.08
2016-09-22T09:02:15.201Z,44.79
2016-09-22T09:03:15.497Z,44.7
2016-09-22T09:04:15.163Z,44.51
2016-09-22T09:05:15.144Z,44.41
2016-09-22T09:06:15.121Z,44.22
2016-09-22T09:07:15.103Z,44.22
2016-09-22T09:08:15.082Z,43.84
2016-09-22T09:09:15.063Z,43.47
2016-09-22T09:10:15.045Z,43.74
2016-09-22T09:11:15.025Z,43.66
2016-09-22T09:12:15.008Z,43.47
2016-09-22T09:13:14.993Z,43.66
2016-09-22T09:14:14.972Z,43.47
2016-09-22T09:15:14.947Z,43.28
2016-09-22T09:16:14.931Z,43.28
2016-09-22T09:17:14.912Z,43.08
2016-09-22T09:18:14.890Z,42.89
2016-09-22T09:19:14.870Z,42.6
2016-09-22T09:20:14.854Z,42.63
2016-09-22T09:21:14.832Z,43.3
2016-09-22T09:22:14.819Z,42.63
2016-09-22T09:23:14.795Z,42.24
2016-09-22T09:24:14.781Z,42.33
2016-09-22T09:25:14.760Z,41.86
2016-09-22T09:26:14.738Z,41.76
2016-09-22T09:27:14.719Z,42.05
2016-09-22T09:28:14.701Z,41.47
2016-09-22T09:29:14.682Z,41.47
2016-09-22T09:30:14.662Z,41.28
2016-09-22T09:31:14.644Z,40.8
2016-09-22T09:32:14.626Z,40.99
2016-09-22T09:33:14.608Z,40.51
2016-09-22T09:34:14.588Z,40.99
2016-09-22T09:35:14.570Z,40.22
2016-09-22T09:36:14.551Z,40.51
2016-09-22T09:37:14.532Z,40.51
2016-09-22T09:38:14.513Z,39.66
2016-09-22T09:39:14.497Z,39.66
2016-09-22T09:40:14.481Z,39.37
2016-09-22T09:41:14.458Z,39.86
2016-09-22T09:42:14.444Z,39.37
2016-09-22T09:43:14.420Z,39.28
2016-09-22T09:44:14.403Z,38.79
2016-09-22T09:45:14.384Z,38.79
2016-09-22T09:46:14.366Z,38.99
2016-09-22T09:47:14.347Z,38.99
2016-09-22T09:48:14.329Z,38.7
2016-09-22T09:49:14.611Z,38.79
2016-09-22T09:50:14.293Z,38.6
2016-09-22T09:51:14.274Z,38.51
2016-09-22T09:52:14.257Z,38.31
2016-09-22T09:53:14.236Z,38.51
2016-09-22T09:54:14.218Z,38.41
2016-09-22T09:55:14.200Z,38.31
2016-09-22T09:56:14.181Z,38.43
2016-09-22T09:57:14.167Z,38.33
2016-09-22T09:58:14.442Z,38.14
2016-09-22T09:59:14.129Z,38.04
2016-09-22T10:00:14.112Z,38.14
2016-09-22T10:01:14.094Z,38.43
2016-09-22T10:02:14.076Z,38.14
2016-09-22T10:03:14.057Z,38.14
2016-09-22T10:04:14.038Z,38.16
2016-09-22T10:05:14.022Z,38.16
2016-09-22T10:06:14.002Z,38.06
2016-09-22T10:07:13.987Z,38.06
2016-09-22T10:08:13.967Z,38.06
2016-09-22T10:09:13.952Z,37.58
2016-09-22T10:10:13.934Z,37.68
2016-09-22T10:11:13.916Z,37.48
2016-09-22T10:12:13.899Z,37.48
2016-09-22T10:13:13.879Z,37.39
2016-09-22T10:14:13.861Z,37.58
2016-09-22T10:15:13.845Z,37.39
2016-09-22T10:16:13.830Z,37.02
2016-09-22T10:17:13.808Z,37.02
2016-09-22T10:18:13.792Z,36.63
2016-09-22T10:19:13.775Z,36.44
2016-09-22T10:20:13.759Z,36.15
2016-09-22T10:21:13.739Z,36.35
2016-09-22T10:22:13.725Z,36.15
2016-09-22T10:23:13.704Z,36.15
2016-09-22T10:24:13.690Z,36.15
2016-09-22T10:25:13.674Z,35.77
2016-09-22T10:26:13.654Z,35.38
2016-09-22T10:27:13.640Z,35.19
2016-09-22T10:28:13.633Z,34.8
2016-09-22T10:29:13.604Z,35
2016-09-22T10:30:13.585Z,35
2016-09-22T10:31:13.571Z,34.7
2016-09-22T10:32:13.551Z,34.32
2016-09-22T10:33:13.534Z,34.03
2016-09-22T10:34:13.519Z,34.13
2016-09-22T10:35:13.501Z,33.76
2016-09-22T10:36:13.489Z,34.05
2016-09-22T10:37:13.470Z,33.76
2016-09-22T10:38:13.452Z,33.76
2016-09-22T10:39:13.436Z,33.47
2016-09-22T10:40:13.421Z,33.95
2016-09-22T10:41:13.403Z,33.58
2016-09-22T10:42:13.385Z,33.48
2016-09-22T10:43:13.371Z,33.39
2016-09-22T10:44:13.354Z,32.91
2016-09-22T10:45:13.339Z,33
2016-09-22T10:46:13.322Z,33
2016-09-22T10:47:13.306Z,32.91
2016-09-22T10:48:13.292Z,32.81
2016-09-22T10:49:13.276Z,32.62
2016-09-22T10:50:13.257Z,32.62
2016-09-22T10:51:13.243Z,32.52
2016-09-22T10:52:13.226Z,32.52
2016-09-22T10:53:13.208Z,32.64
2016-09-22T10:54:13.193Z,32.44
2016-09-22T10:55:13.178Z,32.34
2016-09-22T10:56:13.162Z,32.15
2016-09-22T10:57:13.150Z,32.15
2016-09-22T10:58:13.131Z,32.06
2016-09-22T10:59:13.115Z,32.06
2016-09-22T11:00:13.099Z,31.86
2016-09-22T11:01:13.091Z,31.86
2016-09-22T11:02:13.066Z,31.67
2016-09-22T11:03:13.052Z,31.67
2016-09-22T11:04:13.036Z,31.48
2016-09-22T11:05:13.025Z,31.57
2016-09-22T11:06:13.006Z,31.67
2016-09-22T11:07:12.992Z,31.46
2016-09-22T11:08:12.974Z,31.46
2016-09-22T11:09:12.961Z,31.57
2016-09-22T11:10:12.946Z,31.48
2016-09-22T11:11:12.927Z,31.28
2016-09-22T11:12:12.912Z,31.38
2016-09-22T11:13:12.895Z,30.99
2016-09-22T11:14:12.884Z,31.09
2016-09-22T11:15:12.864Z,30.8
2016-09-22T11:16:12.847Z,30.9
2016-09-22T11:17:12.852Z,30.7
2016-09-22T11:18:12.818Z,30.8
2016-09-22T11:19:12.802Z,30.51
2016-09-22T11:20:12.786Z,30.61
2016-09-22T11:21:12.770Z,30.7
2016-09-22T11:22:12.753Z,30.41
2016-09-22T11:23:12.737Z,30.61
2016-09-22T11:24:12.725Z,30.61
2016-09-22T11:25:12.704Z,30.61
2016-09-22T11:26:12.688Z,30.8
2016-09-22T11:27:12.675Z,30.61
2016-09-22T11:28:12.659Z,30.99
2016-09-22T11:29:12.642Z,30.51
2016-09-22T11:30:12.628Z,30.7
2016-09-22T11:31:12.612Z,30.41
2016-09-22T11:32:12.594Z,30.04
2016-09-22T11:33:12.580Z,30.04
2016-09-22T11:34:12.564Z,29.56
2016-09-22T11:35:12.548Z,29.66
2016-09-22T11:36:12.531Z,29.75
2016-09-22T11:37:12.519Z,29.85
2016-09-22T11:38:12.767Z,29.85
2016-09-22T11:39:12.489Z,29.85
2016-09-22T11:40:12.473Z,29.85
2016-09-22T11:41:12.452Z,29.66
2016-09-22T11:42:12.440Z,29.56
2016-09-22T11:43:12.422Z,29.66
2016-09-22T11:44:12.409Z,29.75
2016-09-22T11:45:12.399Z,29.75
2016-09-22T11:46:12.434Z,29.83
2016-09-22T11:47:12.848Z,29.83
2016-09-22T11:48:12.348Z,29.83
2016-09-22T11:49:12.329Z,29.45
2016-09-22T11:50:12.313Z,29.45
2016-09-22T11:51:12.300Z,29.46
2016-09-22T11:52:12.288Z,29.46
2016-09-22T11:53:12.269Z,29.36
2016-09-22T11:54:12.254Z,29.46
2016-09-22T11:55:12.241Z,29.56
2016-09-22T11:56:12.221Z,29.17
2016-09-22T11:57:12.208Z,29.17
2016-09-22T11:58:12.196Z,29.46
2016-09-22T11:59:12.179Z,29.36
2016-09-22T12:00:12.162Z,29.08
2016-09-22T12:01:12.146Z,28.78
2016-09-22T12:02:12.130Z,28.59
2016-09-22T12:03:12.113Z,28.69
2016-09-22T12:04:12.100Z,28.59
2016-09-22T12:05:12.092Z,28.5
2016-09-22T12:06:12.069Z,28.5
2016-09-22T12:07:12.052Z,28.5
2016-09-22T12:08:12.036Z,28.5
2016-09-22T12:09:12.024Z,28.59
2016-09-22T12:10:12.005Z,28.59
2016-09-22T12:11:11.997Z,28.7
2016-09-22T12:12:11.978Z,28.61
2016-09-22T12:13:11.959Z,28.7
2016-09-22T12:14:11.944Z,28.7
2016-09-22T12:15:12.928Z,28.61
2016-09-22T12:16:11.916Z,28.59
2016-09-22T12:17:11.909Z,28.51
2016-09-22T12:18:11.882Z,28.61
2016-09-22T12:19:11.867Z,28.51
2016-09-22T12:20:11.853Z,28.51
2016-09-22T12:21:11.838Z,28.98
2016-09-22T12:22:11.821Z,28.78
2016-09-22T12:23:11.806Z,28.69
2016-09-22T12:24:11.792Z,28.41
2016-09-22T12:25:11.777Z,28.5
2016-09-22T12:26:11.762Z,28.5
2016-09-22T12:27:11.745Z,28.51
2016-09-22T12:28:11.729Z,28.59
2016-09-22T12:29:11.713Z,28.59
2016-09-22T12:30:11.701Z,28.51
2016-09-22T12:31:11.688Z,28.61
2016-09-22T12:32:11.671Z,28.61
2016-09-22T12:33:11.665Z,28.41
2016-09-22T12:34:11.675Z,28.51
2016-09-22T12:35:11.621Z,28.31
2016-09-22T12:36:11.605Z,28.22
2016-09-22T12:37:11.590Z,27.94
2016-09-22T12:38:11.583Z,28.23
2016-09-22T12:39:11.560Z,28.04
2016-09-22T12:40:11.553Z,27.94
2016-09-22T12:41:11.535Z,27.94
2016-09-22T12:42:11.517Z,27.94
2016-09-22T12:43:11.502Z,27.94
2016-09-22T12:44:11.486Z,28.04
2016-09-22T12:45:11.471Z,27.94
2016-09-22T12:46:11.455Z,27.93
2016-09-22T12:47:11.439Z,27.83
2016-09-22T12:48:11.429Z,28.03
2016-09-22T12:49:11.410Z,27.94
2016-09-22T12:50:11.403Z,27.94
2016-09-22T12:51:11.382Z,27.93
2016-09-22T12:52:11.366Z,27.66
2016-09-22T12:53:11.353Z,27.66
2016-09-22T12:54:11.337Z,27.75
2016-09-22T12:55:11.325Z,27.56